Time;durP1;ratioP1;P1;durP2;ratioP2;P2;SDS_P1;SDS_P2;PMS_P1;PMS_P2;Temp;Humidity;BMP_temperature;BMP_pressure;BME280_temperature;BME280_humidity;BME280_pressure;Samples;Min_cycle;Max_cycle;Signal;HPM_P1;HPM_P2
2023/12/15 00:01:16;;;;;;;0.70;0.70;;;;;;;7.73;100.00;101348.72;4946118;29;20027;-88
2023/12/15 00:03:41;;;;;;;0.70;0.70;;;;;;;7.65;100.00;101324.91;4946252;29;20534;-89
2023/12/15 00:06:07;;;;;;;0.70;0.70;;;;;;;7.96;100.00;101373.44;4945616;29;20505;-88
2023/12/15 00:08:32;;;;;;;0.80;0.80;;;;;;;7.97;100.00;101375.22;4950652;29;20399;-88
2023/12/15 00:10:59;;;;;;;0.70;0.70;;;;;;;8.02;100.00;101395.50;4941697;29;20095;-88
2023/12/15 00:13:24;;;;;;;0.70;0.70;;;;;;;7.86;100.00;101363.72;4939931;29;20027;-88
2023/12/15 00:15:49;;;;;;;0.75;0.75;;;;;;;8.01;100.00;101396.41;4940889;29;20063;-88
2023/12/15 00:18:15;;;;;;;0.70;0.70;;;;;;;7.98;100.00;101392.88;4930566;28;20023;-88
2023/12/15 00:20:40;;;;;;;0.70;0.70;;;;;;;7.96;100.00;101389.34;4943492;29;20089;-88
2023/12/15 00:23:06;;;;;;;0.57;0.57;;;;;;;7.67;100.00;101332.84;4961314;29;20034;-88
2023/12/15 00:25:31;;;;;;;0.70;0.70;;;;;;;7.66;100.00;101336.38;4962270;29;20114;-88
2023/12/15 00:27:57;;;;;;;0.80;0.80;;;;;;;7.59;100.00;101324.91;4962995;29;20142;-88
2023/12/15 00:30:22;;;;;;;0.70;0.70;;;;;;;7.99;100.00;101394.63;4944870;29;20090;-88
2023/12/15 00:32:48;;;;;;;0.68;0.68;;;;;;;7.83;100.00;101376.97;4945654;29;20471;-89
2023/12/15 00:35:13;;;;;;;0.70;0.70;;;;;;;7.55;100.00;101332.81;4945817;29;20166;-89
2023/12/15 00:37:39;;;;;;;0.60;0.60;;;;;;;7.82;100.00;101385.81;4945801;29;20130;-88
2023/12/15 00:40:05;;;;;;;0.73;0.73;;;;;;;7.89;100.00;101403.50;4945476;29;20046;-88
2023/12/15 00:42:30;;;;;;;0.80;0.80;;;;;;;7.88;100.00;101402.59;4957727;29;20058;-88
2023/12/15 00:44:56;;;;;;;0.80;0.80;;;;;;;7.74;100.00;101377.84;4942102;29;20122;-88
2023/12/15 00:47:22;;;;;;;0.70;0.70;;;;;;;7.90;100.00;101407.88;4970935;28;20126;-88
2023/12/15 00:49:47;;;;;;;0.88;0.88;;;;;;;7.65;100.00;101372.56;4944810;29;20035;-88
2023/12/15 00:52:13;;;;;;;0.90;0.90;;;;;;;7.88;100.00;101420.25;4944479;29;20035;-88
2023/12/15 00:54:38;;;;;;;0.80;0.80;;;;;;;7.84;100.00;101416.69;4944546;29;20019;-88
2023/12/15 00:57:04;;;;;;;0.68;0.68;;;;;;;7.81;100.00;101422.00;4945524;29;20121;-88
2023/12/15 00:59:29;;;;;;;0.70;0.70;;;;;;;7.64;100.00;101393.75;4943660;29;20034;-89
2023/12/15 01:01:55;;;;;;;0.70;0.70;;;;;;;7.90;100.00;101432.63;4945353;29;20058;-88
2023/12/15 01:04:20;;;;;;;0.80;0.80;;;;;;;7.92;100.00;101438.78;4960724;29;20030;-88
2023/12/15 01:06:46;;;;;;;0.70;0.70;;;;;;;7.79;100.00;101418.47;4943757;29;20394;-88
2023/12/15 01:09:11;;;;;;;0.80;0.80;;;;;;;7.99;100.00;101459.09;4944352;29;20023;-88
2023/12/15 01:11:37;;;;;;;0.80;0.80;;;;;;;7.83;100.00;101425.53;4936491;29;20054;-88
2023/12/15 01:14:02;;;;;;;0.60;0.60;;;;;;;7.85;100.00;101438.78;4959247;29;20026;-88
2023/12/15 01:16:28;;;;;;;0.73;0.73;;;;;;;7.88;100.00;101449.38;4943920;29;20027;-88
2023/12/15 01:18:53;;;;;;;0.68;0.68;;;;;;;7.88;100.00;101459.97;4944783;29;20080;-88
2023/12/15 01:21:19;;;;;;;0.70;0.70;;;;;;;7.82;100.00;101446.75;4938338;28;20025;-88
2023/12/15 01:23:44;;;;;;;0.75;0.75;;;;;;;7.77;100.00;101435.25;4964081;28;20031;-88
2023/12/15 01:26:10;;;;;;;0.70;0.70;;;;;;;7.83;100.00;101441.44;4963520;28;20474;-88
2023/12/15 01:28:35;;;;;;;0.80;0.80;;;;;;;7.86;100.00;101459.97;4969376;28;20033;-89
2023/12/15 01:31:03;;;;;;;0.70;0.70;;;;;;;7.83;100.00;101441.44;4943873;29;20031;-88
2023/12/15 01:33:30;;;;;;;0.70;0.70;;;;;;;7.90;100.00;101459.13;4962281;29;20046;-88
2023/12/15 01:35:56;;;;;;;0.70;0.70;;;;;;;8.11;100.00;101490.03;4964177;28;20042;-88
2023/12/15 01:38:21;;;;;;;0.70;0.70;;;;;;;8.12;100.00;101480.31;4957121;28;20055;-88
2023/12/15 01:40:47;;;;;;;0.70;0.70;;;;;;;7.94;100.00;101460.88;4961699;29;20809;-88
2023/12/15 01:43:12;;;;;;;0.73;0.73;;;;;;;8.01;100.00;101482.94;4945249;29;20394;-88
2023/12/15 01:45:38;;;;;;;0.80;0.80;;;;;;;8.00;100.00;101470.59;4944202;29;20038;-88
2023/12/15 01:48:05;;;;;;;0.73;0.73;;;;;;;7.99;100.00;101485.59;4947012;28;20044;-88
2023/12/15 01:50:30;;;;;;;0.80;0.80;;;;;;;7.84;100.00;101448.50;4959620;29;20418;-88
2023/12/15 01:52:55;;;;;;;0.70;0.70;;;;;;;8.10;100.00;101504.19;4958009;29;20027;-88
2023/12/15 01:55:21;;;;;;;0.80;0.80;;;;;;;7.97;100.00;101481.19;4942734;29;20027;-88
2023/12/15 01:57:46;;;;;;;0.70;0.70;;;;;;;7.83;100.00;101462.63;4943248;29;20066;-88
2023/12/15 02:00:36;;;;;;;0.70;0.70;;;;;;;8.03;100.00;101500.63;4942779;29;20023;-88
2023/12/15 02:03:02;;;;;;;0.60;0.60;;;;;;;7.91;100.00;101476.75;4944545;29;20122;-88
2023/12/15 02:05:28;;;;;;;0.80;0.80;;;;;;;7.90;100.00;101480.31;4944553;29;20059;-88
2023/12/15 02:07:53;;;;;;;0.70;0.70;;;;;;;7.95;100.00;101504.16;4961458;29;20030;-88
2023/12/15 02:10:19;;;;;;;0.80;0.80;;;;;;;8.09;100.00;101522.72;4960838;28;20034;-88
2023/12/15 02:12:44;;;;;;;0.70;0.70;;;;;;;8.07;100.00;101520.94;4942836;29;20483;-88
2023/12/15 02:15:10;;;;;;;0.68;0.68;;;;;;;8.05;100.00;101529.78;4942954;29;20024;-88
2023/12/15 02:17:37;;;;;;;0.80;0.80;;;;;;;7.66;100.00;101463.50;4942471;29;20106;-88
2023/12/15 02:20:02;;;;;;;0.70;0.70;;;;;;;8.01;100.00;101526.25;4959682;29;20522;-88
2023/12/15 02:22:28;;;;;;;0.80;0.80;;;;;;;7.93;100.00;101511.19;4960045;29;20062;-88
2023/12/15 02:24:53;;;;;;;0.80;0.80;;;;;;;7.95;100.00;101518.28;4941266;29;20038;-88
2023/12/15 02:27:19;;;;;;;0.80;0.80;;;;;;;7.83;100.00;101499.72;4942775;29;20245;-88
2023/12/15 02:29:44;;;;;;;0.80;0.80;;;;;;;7.88;100.00;101503.25;4942520;29;20058;-88
2023/12/15 02:32:10;;;;;;;0.70;0.70;;;;;;;7.76;100.00;101500.56;4942089;29;20031;-88
2023/12/15 02:34:36;;;;;;;0.70;0.70;;;;;;;7.96;100.00;101538.59;4942075;29;20024;-88
2023/12/15 02:37:01;;;;;;;0.70;0.70;;;;;;;7.96;100.00;101538.59;4930891;29;20047;-88
2023/12/15 02:39:27;;;;;;;0.68;0.68;;;;;;;7.86;100.00;101535.91;4926313;29;20019;-88
2023/12/15 02:41:52;;;;;;;0.73;0.73;;;;;;;7.79;100.00;101529.72;4942469;29;20035;-88
2023/12/15 02:44:18;;;;;;;0.70;0.70;;;;;;;7.82;100.00;101535.00;4959687;29;20114;-87
2023/12/15 02:46:43;;;;;;;0.80;0.80;;;;;;;7.92;100.00;101544.75;4942947;29;20042;-88
2023/12/15 02:49:09;;;;;;;0.80;0.80;;;;;;;7.90;100.00;101543.88;4942525;29;20038;-88
2023/12/15 02:51:34;;;;;;;0.80;0.80;;;;;;;8.05;100.00;101565.09;4942931;29;20023;-88
2023/12/15 02:54:00;;;;;;;0.80;0.80;;;;;;;8.01;100.00;101560.69;4959856;29;20034;-87
2023/12/15 02:56:26;;;;;;;0.80;0.80;;;;;;;8.07;100.00;101558.03;4958774;29;20027;-88
2023/12/15 02:58:52;;;;;;;0.75;0.75;;;;;;;7.88;100.00;101534.16;4958538;29;20434;-88
2023/12/15 03:01:18;;;;;;;0.60;0.60;;;;;;;7.91;100.00;101545.66;4942197;29;20114;-89
2023/12/15 03:03:44;;;;;;;0.80;0.80;;;;;;;8.07;100.00;101545.69;4942501;29;20015;-89
2023/12/15 03:06:09;;;;;;;0.80;0.80;;;;;;;7.89;100.00;101523.56;4941922;29;20058;-88
2023/12/15 03:08:34;;;;;;;0.77;0.77;;;;;;;7.90;100.00;101533.28;4942495;29;20391;-88
2023/12/15 03:11:00;;;;;;;0.70;0.70;;;;;;;7.92;100.00;101533.28;4941201;29;20034;-88
2023/12/15 03:13:25;;;;;;;0.80;0.80;;;;;;;8.04;100.00;101550.09;4959277;29;20023;-88
2023/12/15 03:15:51;;;;;;;0.90;0.90;;;;;;;8.00;100.00;101556.28;4941492;29;20842;-88
2023/12/15 03:18:17;;;;;;;0.90;0.90;;;;;;;7.90;100.00;101528.00;4959105;29;20356;-88
2023/12/15 03:20:44;;;;;;;0.70;0.70;;;;;;;7.95;100.00;101542.13;4950074;28;20023;-88
2023/12/15 03:23:10;;;;;;;0.70;0.70;;;;;;;8.18;100.00;101586.31;4980448;28;20604;-88
2023/12/15 03:25:35;;;;;;;0.70;0.70;;;;;;;7.77;100.00;101525.31;4959234;29;20031;-88
2023/12/15 03:28:00;;;;;;;0.75;0.75;;;;;;;8.01;100.00;101560.69;4945713;29;20360;-88
2023/12/15 03:30:26;;;;;;;0.80;0.80;;;;;;;7.73;100.00;101521.75;4957806;28;20027;-88
2023/12/15 03:32:51;;;;;;;0.70;0.70;;;;;;;8.16;100.00;101594.28;4965821;28;20033;-89
2023/12/15 03:35:18;;;;;;;0.80;0.80;;;;;;;7.75;100.00;101522.66;4966012;28;20030;-88
2023/12/15 03:37:43;;;;;;;0.73;0.73;;;;;;;8.14;100.00;101569.53;4977597;28;20436;-89
2023/12/15 03:40:09;;;;;;;0.75;0.75;;;;;;;8.16;100.00;101578.38;4946440;29;20110;-89
2023/12/15 03:42:35;;;;;;;0.60;0.60;;;;;;;8.14;100.00;101564.22;4945908;29;20031;-89
2023/12/15 03:45:00;;;;;;;0.80;0.80;;;;;;;8.18;100.00;101575.72;4946815;29;20090;-88
2023/12/15 03:47:25;;;;;;;0.70;0.70;;;;;;;8.23;100.00;101589.88;4945753;29;20094;-88
2023/12/15 03:49:51;;;;;;;0.60;0.60;;;;;;;8.11;100.00;101568.63;4947148;29;20051;-88
2023/12/15 03:52:16;;;;;;;0.60;0.60;;;;;;;8.21;100.00;101589.88;4945720;29;20059;-88
2023/12/15 03:54:42;;;;;;;0.73;0.73;;;;;;;8.12;100.00;101583.69;4944995;29;20019;-89
2023/12/15 03:57:07;;;;;;;0.50;0.50;;;;;;;8.04;100.00;101578.34;4945740;29;20034;-89
2023/12/15 03:59:33;;;;;;;0.80;0.80;;;;;;;8.00;100.00;101566.88;4965618;28;20034;-89
2023/12/15 04:01:58;;;;;;;0.60;0.60;;;;;;;7.99;100.00;101585.38;4944739;29;20179;-88
2023/12/15 04:04:23;;;;;;;0.70;0.70;;;;;;;7.89;100.00;101573.88;4944470;29;20059;-88
2023/12/15 04:06:49;;;;;;;0.70;0.70;;;;;;;7.98;100.00;101589.81;4944899;29;20023;-88
2023/12/15 04:09:14;;;;;;;0.70;0.70;;;;;;;7.69;100.00;101549.09;4945151;29;20058;-88
2023/12/15 04:11:40;;;;;;;0.63;0.63;;;;;;;8.01;100.00;101588.94;4960510;29;20049;-88
2023/12/15 04:14:05;;;;;;;0.70;0.70;;;;;;;7.86;100.00;101573.88;4962652;29;20155;-88
2023/12/15 04:16:31;;;;;;;0.73;0.73;;;;;;;7.93;100.00;101596.88;4944454;29;20027;-88
2023/12/15 04:19:00;;;;;;;0.80;0.80;;;;;;;7.78;100.00;101580.91;4943983;29;20050;-88
2023/12/15 04:21:26;;;;;;;0.70;0.70;;;;;;;7.87;100.00;101606.56;4945002;29;20031;-88
2023/12/15 04:23:51;;;;;;;0.70;0.70;;;;;;;7.62;100.00;101594.09;4944265;29;20085;-88
2023/12/15 04:26:17;;;;;;;0.70;0.70;;;;;;;7.73;100.00;101609.16;4943808;29;20042;-88
2023/12/15 04:28:43;;;;;;;0.77;0.77;;;;;;;7.47;100.00;101552.56;4943630;29;20038;-88
2023/12/15 04:31:12;;;;;;;0.80;0.80;;;;;;;7.59;100.00;101581.75;4943951;29;20023;-88
2023/12/15 04:33:38;;;;;;;0.68;0.68;;;;;;;7.71;100.00;101610.91;4942675;29;20036;-88
2023/12/15 04:36:04;;;;;;;0.70;0.70;;;;;;;7.59;100.00;101594.09;4961372;29;20965;-88
2023/12/15 04:38:29;;;;;;;0.80;0.80;;;;;;;7.68;100.00;101615.28;4961622;28;20059;-88
2023/12/15 04:40:55;;;;;;;0.90;0.90;;;;;;;7.78;100.00;101627.69;4944385;29;20080;-88
2023/12/15 04:43:21;;;;;;;0.70;0.70;;;;;;;7.59;100.00;101600.28;4944163;29;20086;-89
2023/12/15 04:45:47;;;;;;;0.70;0.70;;;;;;;7.79;100.00;101637.44;4944243;29;20395;-88
2023/12/15 04:48:12;;;;;;;0.70;0.70;;;;;;;7.76;100.00;101618.84;4943236;29;20031;-88
2023/12/15 04:50:39;;;;;;;0.70;0.70;;;;;;;7.64;100.00;101617.03;4942568;29;20038;-88
2023/12/15 04:53:05;;;;;;;0.70;0.70;;;;;;;7.70;100.00;101647.97;4939865;29;20039;-88
2023/12/15 04:55:31;;;;;;;0.80;0.80;;;;;;;7.46;100.00;101608.16;4953372;29;20519;-88
2023/12/15 04:57:57;;;;;;;0.70;0.70;;;;;;;7.66;100.00;101647.06;4952642;28;20050;-88
2023/12/15 05:00:22;;;;;;;0.88;0.88;;;;;;;7.59;100.00;101634.69;4962033;28;20362;-88
2023/12/15 05:02:48;;;;;;;0.60;0.60;;;;;;;7.41;100.00;101616.03;4963173;28;20023;-88
2023/12/15 05:05:13;;;;;;;0.80;0.80;;;;;;;7.74;100.00;101674.47;4943806;29;20031;-88
2023/12/15 05:07:39;;;;;;;0.80;0.80;;;;;;;7.50;100.00;101626.69;4961404;29;20031;-88
2023/12/15 05:10:05;;;;;;;0.80;0.80;;;;;;;7.67;100.00;101662.09;4960777;29;20071;-88
2023/12/15 05:12:34;;;;;;;0.60;0.60;;;;;;;7.71;100.00;101653.28;4943513;29;20027;-88
2023/12/15 05:15:01;;;;;;;0.70;0.70;;;;;;;7.85;100.00;101667.50;4943239;29;20102;-88
2023/12/15 05:17:26;;;;;;;0.80;0.80;;;;;;;7.79;100.00;101662.13;4943816;29;20033;-88
2023/12/15 05:19:52;;;;;;;0.73;0.73;;;;;;;7.92;100.00;101679.00;4943068;29;20129;-88
2023/12/15 05:22:17;;;;;;;0.65;0.65;;;;;;;7.97;100.00;101685.22;4943385;29;20094;-88
2023/12/15 05:24:43;;;;;;;0.90;0.90;;;;;;;7.64;100.00;101646.16;4942927;29;20023;-88
2023/12/15 05:27:08;;;;;;;0.80;0.80;;;;;;;7.56;100.00;101626.72;4942688;29;20081;-88
2023/12/15 05:29:34;;;;;;;0.80;0.80;;;;;;;7.67;100.00;101651.50;4942285;29;20109;-88
2023/12/15 05:32:00;;;;;;;0.80;0.80;;;;;;;8.09;100.00;101724.13;4942658;29;20414;-88
2023/12/15 05:34:26;;;;;;;0.68;0.68;;;;;;;7.54;100.00;101652.31;4956661;28;20051;-88
2023/12/15 05:36:52;;;;;;;0.80;0.80;;;;;;;8.05;100.00;101726.72;4940135;28;20123;-88
2023/12/15 05:39:17;;;;;;;0.75;0.75;;;;;;;7.90;100.00;101692.25;4943952;29;20031;-88
2023/12/15 05:41:43;;;;;;;0.82;0.82;;;;;;;8.14;100.00;101732.97;4942558;29;20032;-88
2023/12/15 05:44:08;;;;;;;0.73;0.73;;;;;;;8.01;100.00;101735.56;4941166;29;20082;-88
2023/12/15 05:46:35;;;;;;;0.80;0.80;;;;;;;7.92;100.00;101739.94;4957734;28;20034;-88
2023/12/15 05:49:01;;;;;;;0.90;0.90;;;;;;;7.84;100.00;101737.22;4941589;29;20475;-88
2023/12/15 05:51:26;;;;;;;0.73;0.73;;;;;;;7.91;100.00;101741.69;4941602;29;20082;-89
2023/12/15 05:53:52;;;;;;;0.73;0.73;;;;;;;7.90;100.00;101726.69;4967492;28;20339;-89
2023/12/15 05:56:17;;;;;;;0.73;0.73;;;;;;;7.90;100.00;101728.44;4951788;29;20809;-88
2023/12/15 05:58:43;;;;;;;0.70;0.70;;;;;;;7.91;100.00;101738.16;4941470;29;20031;-88
2023/12/15 06:01:10;;;;;;;0.70;0.70;;;;;;;7.96;100.00;101749.66;4957524;29;20475;-89
2023/12/15 06:03:36;;;;;;;0.80;0.80;;;;;;;8.00;100.00;101757.66;4941612;29;20086;-89
2023/12/15 06:06:01;;;;;;;0.70;0.70;;;;;;;7.96;100.00;101755.84;4958562;29;20102;-89
2023/12/15 06:08:26;;;;;;;0.73;0.73;;;;;;;7.96;100.00;101755.84;4940885;29;20031;-88
2023/12/15 06:10:52;;;;;;;0.80;0.80;;;;;;;8.07;100.00;101768.28;4960663;28;20029;-88
2023/12/15 06:13:17;;;;;;;0.80;0.80;;;;;;;7.86;100.00;101738.13;4977843;28;20030;-89
2023/12/15 06:15:43;;;;;;;0.70;0.70;;;;;;;8.03;100.00;101776.22;4960173;28;20031;-88
2023/12/15 06:18:08;;;;;;;0.80;0.80;;;;;;;7.92;100.00;101754.03;4946425;29;20023;-89
2023/12/15 06:20:33;;;;;;;0.73;0.73;;;;;;;7.99;100.00;101774.41;4940979;29;20119;-89
2023/12/15 06:22:59;;;;;;;0.90;0.90;;;;;;;7.97;100.00;101778.81;4940945;29;20082;-89
2023/12/15 06:25:25;;;;;;;0.80;0.80;;;;;;;7.95;100.00;101775.28;4941390;29;20060;-89
2023/12/15 06:27:50;;;;;;;0.80;0.80;;;;;;;7.93;100.00;101787.63;4956854;29;20038;-89
2023/12/15 06:30:16;;;;;;;0.70;0.70;;;;;;;7.98;100.00;101804.44;4940690;29;20031;-89
2023/12/15 06:32:41;;;;;;;0.80;0.80;;;;;;;7.99;100.00;101814.16;4940687;29;20074;-89
2023/12/15 06:35:07;;;;;;;0.75;0.75;;;;;;;7.99;100.00;101811.50;4935383;29;20031;-89
2023/12/15 06:37:32;;;;;;;0.70;0.70;;;;;;;7.97;100.00;101801.78;4921205;29;20456;-88
2023/12/15 06:39:58;;;;;;;0.80;0.80;;;;;;;8.12;100.00;101824.84;4938416;29;20040;-89
2023/12/15 06:42:23;;;;;;;0.80;0.80;;;;;;;7.90;100.00;101802.63;4938346;29;20115;-89
2023/12/15 06:44:48;;;;;;;0.80;0.80;;;;;;;7.93;100.00;101821.19;4929115;29;20019;-89
2023/12/15 06:47:14;;;;;;;0.80;0.80;;;;;;;7.76;100.00;101794.56;4956066;29;20553;-89
2023/12/15 06:49:40;;;;;;;0.80;0.80;;;;;;;7.78;100.00;101805.16;4939642;29;20499;-89
2023/12/15 06:52:05;;;;;;;0.80;0.80;;;;;;;7.74;100.00;101801.59;4940096;29;20023;-89
2023/12/15 06:54:39;;;;;;;0.80;0.80;;;;;;;7.83;100.00;101820.22;4940352;29;20027;-89
2023/12/15 06:57:06;;;;;;;0.68;0.68;;;;;;;7.76;100.00;101809.56;4939277;29;20031;-89
2023/12/15 06:59:31;;;;;;;0.70;0.70;;;;;;;7.58;100.00;101794.44;4957980;29;20027;-89
2023/12/15 07:01:57;;;;;;;0.75;0.75;;;;;;;7.62;100.00;101800.63;4939871;29;20025;-89
2023/12/15 07:04:22;;;;;;;0.73;0.73;;;;;;;7.75;100.00;101837.84;4940078;29;20026;-89
2023/12/15 07:06:47;;;;;;;0.80;0.80;;;;;;;7.75;100.00;101840.47;4940240;29;20130;-89
2023/12/15 07:09:13;;;;;;;0.63;0.63;;;;;;;7.64;100.00;101831.53;4954981;29;20070;-89
2023/12/15 07:11:41;;;;;;;0.75;0.75;;;;;;;7.64;100.00;101834.19;4940027;29;20031;-88
2023/12/15 07:14:06;;;;;;;0.70;0.70;;;;;;;7.76;100.00;101855.50;4955799;29;20161;-89
2023/12/15 07:16:32;;;;;;;0.77;0.77;;;;;;;7.62;100.00;101849.19;4956254;29;20486;-89
2023/12/15 07:18:57;;;;;;;0.80;0.80;;;;;;;7.61;100.00;101855.34;4939626;29;20117;-88
2023/12/15 07:21:23;;;;;;;0.70;0.70;;;;;;;7.57;100.00;101850.94;4941012;28;20122;-88
2023/12/15 07:23:48;;;;;;;0.70;0.70;;;;;;;7.77;100.00;101878.47;4959218;28;20109;-88
2023/12/15 07:26:14;;;;;;;0.80;0.80;;;;;;;7.70;100.00;101855.44;4972016;28;20109;-89
2023/12/15 07:28:39;;;;;;;0.70;0.70;;;;;;;7.76;100.00;101865.19;4939643;29;20033;-89
2023/12/15 07:31:05;;;;;;;0.80;0.80;;;;;;;7.78;100.00;101866.09;4939451;29;20115;-88
2023/12/15 07:33:30;;;;;;;0.70;0.70;;;;;;;7.84;100.00;101874.09;4938406;29;20380;-89
2023/12/15 07:35:55;;;;;;;0.70;0.70;;;;;;;7.84;100.00;101872.31;4938466;29;20046;-88
2023/12/15 07:38:21;;;;;;;0.70;0.70;;;;;;;7.78;100.00;101867.00;4938771;29;20055;-88
2023/12/15 07:40:46;;;;;;;0.60;0.60;;;;;;;7.86;100.00;101886.47;4947351;28;20033;-89
2023/12/15 07:43:12;;;;;;;0.90;0.90;;;;;;;7.77;100.00;101886.41;4950983;29;20023;-89
2023/12/15 07:45:37;;;;;;;0.80;0.80;;;;;;;7.65;100.00;101881.00;4953951;29;20020;-89
2023/12/15 07:48:03;;;;;;;0.80;0.80;;;;;;;7.63;100.00;101856.25;4938301;28;20754;-89
2023/12/15 07:50:28;;;;;;;0.80;0.80;;;;;;;7.72;100.00;101871.34;4956453;29;20019;-88
2023/12/15 07:52:54;;;;;;;0.88;0.88;;;;;;;7.72;100.00;101876.66;4943922;28;20023;-89
2023/12/15 07:55:19;;;;;;;0.73;0.73;;;;;;;7.66;100.00;101881.91;4959572;28;20030;-88
2023/12/15 07:57:44;;;;;;;0.70;0.70;;;;;;;7.88;100.00;101913.88;4942820;29;20031;-89
2023/12/15 08:00:11;;;;;;;0.70;0.70;;;;;;;7.89;100.00;101912.13;4937526;29;20028;-88
2023/12/15 08:02:36;;;;;;;0.63;0.63;;;;;;;7.88;100.00;101916.53;4952412;29;20049;-89
2023/12/15 08:05:02;;;;;;;0.80;0.80;;;;;;;7.90;100.00;101912.13;4939313;29;20077;-89
2023/12/15 08:07:27;;;;;;;0.80;0.80;;;;;;;8.07;100.00;101929.03;4939747;28;20023;-88
2023/12/15 08:09:53;;;;;;;0.70;0.70;;;;;;;7.83;100.00;101891.75;4942217;29;20521;-88
2023/12/15 08:12:18;;;;;;;0.70;0.70;;;;;;;8.18;100.00;101930.88;4959985;29;20422;-89
2023/12/15 08:14:44;;;;;;;0.80;0.80;;;;;;;8.30;100.00;101939.88;4936851;29;20129;-88
2023/12/15 08:17:09;;;;;;;0.90;0.90;;;;;;;7.84;100.00;101876.75;4970704;28;20033;-89
2023/12/15 08:19:35;;;;;;;0.77;0.77;;;;;;;7.85;100.00;101892.66;4979356;28;20026;-89
2023/12/15 08:22:01;;;;;;;0.70;0.70;;;;;;;8.13;100.00;101936.16;4961204;28;20070;-89
2023/12/15 08:24:27;;;;;;;0.80;0.80;;;;;;;8.11;100.00;101952.91;4957478;29;20027;-89
2023/12/15 08:26:57;;;;;;;0.80;0.80;;;;;;;8.04;100.00;101939.63;4942731;29;20031;-89
2023/12/15 08:29:23;;;;;;;0.80;0.80;;;;;;;7.88;100.00;101905.94;4942529;29;20023;-88
2023/12/15 08:31:49;;;;;;;0.90;0.90;;;;;;;7.93;100.00;101941.28;4942235;29;20035;-89
2023/12/15 08:34:14;;;;;;;0.70;0.70;;;;;;;7.92;100.00;101946.59;4941499;29;20099;-89
2023/12/15 08:36:40;;;;;;;0.80;0.80;;;;;;;7.85;100.00;101937.69;4940975;29;20138;-88
2023/12/15 08:39:05;;;;;;;0.80;0.80;;;;;;;7.93;100.00;101943.94;4925958;29;20485;-89
2023/12/15 08:41:31;;;;;;;0.70;0.70;;;;;;;7.96;100.00;101943.06;4942309;29;20030;-89
2023/12/15 08:43:56;;;;;;;0.80;0.80;;;;;;;8.08;100.00;101956.44;4958134;29;20035;-88
2023/12/15 08:46:22;;;;;;;0.70;0.70;;;;;;;8.15;100.00;101974.19;4941917;29;20028;-89
2023/12/15 08:48:49;;;;;;;0.68;0.68;;;;;;;8.25;100.00;101985.75;4958414;29;20023;-89
2023/12/15 08:51:15;;;;;;;0.70;0.70;;;;;;;8.20;100.00;101971.56;4959040;29;20023;-89
2023/12/15 08:53:40;;;;;;;0.80;0.80;;;;;;;8.14;100.00;101950.31;4943176;29;20829;-89
2023/12/15 08:56:05;;;;;;;0.73;0.73;;;;;;;8.14;100.00;101971.50;4947755;28;20038;-89
2023/12/15 08:58:31;;;;;;;0.70;0.70;;;;;;;8.15;100.00;101957.38;4960557;28;20028;-88
2023/12/15 09:00:57;;;;;;;0.80;0.80;;;;;;;8.14;100.00;101950.31;4943021;29;20103;-89
2023/12/15 09:03:22;;;;;;;0.70;0.70;;;;;;;8.26;100.00;101966.31;4959673;29;20035;-88
2023/12/15 09:05:48;;;;;;;0.80;0.80;;;;;;;8.24;100.00;101963.66;4943127;29;20315;-88
2023/12/15 09:08:13;;;;;;;0.80;0.80;;;;;;;8.45;100.00;101992.13;4959749;29;20813;-89
2023/12/15 09:10:43;;;;;;;0.80;0.80;;;;;;;8.45;100.00;101979.72;4942963;29;20038;-89
2023/12/15 09:13:11;;;;;;;0.80;0.80;;;;;;;8.34;100.00;101969.91;4965020;28;20027;-89
2023/12/15 09:15:37;;;;;;;0.90;0.90;;;;;;;8.46;100.00;101992.13;4959457;29;20027;-88
2023/12/15 09:18:03;;;;;;;0.70;0.70;;;;;;;8.52;100.00;102001.88;4939374;29;20676;-89
2023/12/15 09:20:28;;;;;;;0.77;0.77;;;;;;;8.52;100.00;101992.16;4922482;29;20023;-89
2023/12/15 09:22:56;;;;;;;0.80;0.80;;;;;;;8.42;100.00;101968.25;4941234;28;20035;-89
2023/12/15 09:25:22;;;;;;;0.80;0.80;;;;;;;8.53;100.00;101975.41;4961335;28;20030;-89
2023/12/15 09:27:47;;;;;;;0.70;0.70;;;;;;;8.35;100.00;101950.50;4955781;29;20031;-89
2023/12/15 09:30:13;;;;;;;0.60;0.60;;;;;;;8.68;100.00;102011.75;4942618;29;20031;-89
2023/12/15 09:32:39;;;;;;;0.80;0.80;;;;;;;8.67;100.00;102024.09;4959450;28;20707;-89
2023/12/15 09:35:06;;;;;;;0.70;0.70;;;;;;;8.35;100.00;101961.09;4941453;29;20023;-88
2023/12/15 09:37:31;;;;;;;0.80;0.80;;;;;;;8.18;100.00;101938.84;4932314;29;20134;-88
2023/12/15 09:39:57;;;;;;;0.70;0.70;;;;;;;8.30;100.00;101963.72;4922390;29;20028;-88
2023/12/15 09:42:23;;;;;;;0.85;0.85;;;;;;;8.46;100.00;101964.72;4941706;28;20176;-88
2023/12/15 09:44:50;;;;;;;0.70;0.70;;;;;;;8.73;100.00;102013.53;4956973;28;20027;-89
2023/12/15 09:47:17;;;;;;;0.80;0.80;;;;;;;8.79;100.00;102016.25;4944196;29;20039;-89
2023/12/15 09:49:46;;;;;;;0.80;0.80;;;;;;;8.93;100.00;102029.56;4943306;29;20027;-88
2023/12/15 09:52:14;;;;;;;0.80;0.80;;;;;;;9.00;100.00;102015.47;4958444;29;20023;-89
2023/12/15 09:54:40;;;;;;;0.80;0.80;;;;;;;9.03;100.00;102007.50;4941240;29;20015;-89
2023/12/15 09:57:07;;;;;;;0.70;0.70;;;;;;;9.16;100.00;102004.03;4954942;28;20121;-89
2023/12/15 09:59:34;;;;;;;0.80;0.80;;;;;;;9.16;100.00;101986.34;4948485;29;20027;-89
2023/12/15 10:02:00;;;;;;;0.70;0.70;;;;;;;9.47;100.00;102021.91;4940963;29;20074;-88
2023/12/15 10:04:25;;;;;;;0.70;0.70;;;;;;;9.70;100.00;102041.47;4941100;29;20019;-88
2023/12/15 10:06:51;;;;;;;0.68;0.68;;;;;;;9.73;100.00;102014.91;4958575;29;20034;-89
2023/12/15 10:09:16;;;;;;;0.70;0.70;;;;;;;10.03;100.00;102020.25;4940840;29;20027;-89
2023/12/15 10:11:44;;;;;;;0.55;0.55;;;;;;;10.22;100.00;102000.81;4941480;29;20024;-89
2023/12/15 10:14:11;;;;;;;0.70;0.70;;;;;;;10.44;99.63;102013.22;4941067;29;20034;-89
2023/12/15 10:16:38;;;;;;;0.70;0.70;;;;;;;10.68;99.48;102022.06;4936732;29;20387;-89
2023/12/15 10:19:04;;;;;;;0.60;0.60;;;;;;;10.89;97.59;102016.75;4923126;29;20027;-89
2023/12/15 10:21:34;;;;;;;0.63;0.63;;;;;;;11.23;96.68;102034.41;4977487;28;20037;-89
2023/12/15 10:24:17;;;;;;;0.70;0.70;;;;;;;11.49;94.61;102043.19;4961167;28;20034;-89
2023/12/15 10:26:43;;;;;;;0.70;0.70;;;;;;;11.79;93.39;102029.75;4949941;29;20425;-89
2023/12/15 10:29:08;;;;;;;0.60;0.60;;;;;;;12.40;89.15;102041.78;4941471;29;20119;-88
2023/12/15 10:31:37;;;;;;;0.60;0.60;;;;;;;12.58;86.49;102051.41;4938363;29;20024;-89
2023/12/15 10:34:03;;;;;;;0.60;0.60;;;;;;;12.29;84.17;102038.28;4940242;29;20564;-89
2023/12/15 10:36:30;;;;;;;0.60;0.60;;;;;;;11.98;83.77;102055.41;4940418;29;20119;-89
2023/12/15 10:38:56;;;;;;;0.63;0.63;;;;;;;11.62;84.42;102047.56;4927437;29;20040;-89
2023/12/15 10:41:22;;;;;;;0.70;0.70;;;;;;;11.32;85.63;102039.69;4938647;29;20020;-89
2023/12/15 10:43:50;;;;;;;0.63;0.63;;;;;;;11.39;87.51;102057.44;4952093;29;20031;-89
2023/12/15 10:46:17;;;;;;;0.70;0.70;;;;;;;11.20;86.02;102045.06;4940978;29;20110;-89
2023/12/15 10:48:44;;;;;;;0.70;0.70;;;;;;;10.91;84.83;102041.56;4959418;29;20482;-88
2023/12/15 10:51:11;;;;;;;0.60;0.60;;;;;;;10.74;85.46;102038.94;4941640;29;20027;-89
2023/12/15 10:53:39;;;;;;;0.60;0.60;;;;;;;10.63;86.52;102025.66;4941748;29;20106;-88
2023/12/15 10:56:05;;;;;;;0.70;0.70;;;;;;;10.77;86.06;102033.63;4940842;29;20471;-88
2023/12/15 10:58:30;;;;;;;0.70;0.70;;;;;;;11.02;85.32;102027.34;4941404;29;20023;-88
2023/12/15 11:00:57;;;;;;;0.60;0.60;;;;;;;10.93;84.31;102032.69;4940229;29;20031;-88
2023/12/15 11:03:23;;;;;;;0.68;0.68;;;;;;;11.06;85.00;102052.19;4940964;29;20038;-88
2023/12/15 11:05:49;;;;;;;0.60;0.60;;;;;;;11.08;84.94;102045.09;4942894;29;20023;-88
2023/12/15 11:08:14;;;;;;;0.60;0.60;;;;;;;11.07;85.02;102016.69;4958033;29;20031;-88
2023/12/15 11:10:40;;;;;;;0.70;0.70;;;;;;;11.49;85.61;102059.16;4959143;29;20113;-88
2023/12/15 11:13:44;;;;;;;0.60;0.60;;;;;;;11.33;83.78;102046.81;4941603;29;20081;-88
2023/12/15 11:16:11;;;;;;;0.60;0.60;;;;;;;11.28;83.10;102037.94;4937688;29;20118;-89
2023/12/15 11:18:40;;;;;;;0.57;0.57;;;;;;;11.36;82.04;102050.34;4938782;29;20036;-89